Time;durP1;ratioP1;P1;durP2;ratioP2;P2;SDS_P1;SDS_P2;PMS_P1;PMS_P2;Temp;Humidity;BMP_temperature;BMP_pressure;BME280_temperature;BME280_humidity;BME280_pressure;Samples;Min_cycle;Max_cycle;Signal;HPM_P1;HPM_P2
2022/08/10 00:00:54;;;;;;;3.5;7.4;;;;;;;13.3;100;99470;;;;
2022/08/10 00:10:54;;;;;;;3.5;7.4;;;;;;;13.2;100;99470;;;;
2022/08/10 00:21:54;;;;;;;3.5;7.4;;;;;;;12.9;100;99460;;;;
2022/08/10 00:31:54;;;;;;;4.7;7.3;;;;;;;12.8;100;99460;;;;
2022/08/10 00:42:54;;;;;;;4.7;7.3;;;;;;;12.5;100;99460;;;;
2022/08/10 00:52:54;;;;;;;4.7;7.3;;;;;;;12.5;100;99450;;;;
2022/08/10 01:03:54;;;;;;;3.9;6.1;;;;;;;12.4;100;99460;;;;
2022/08/10 01:13:54;;;;;;;3.9;6.1;;;;;;;12.4;100;99460;;;;
2022/08/10 01:23:54;;;;;;;3.9;6.1;;;;;;;12.3;100;99460;;;;
2022/08/10 01:33:54;;;;;;;3.4;6.3;;;;;;;12;100;99460;;;;
2022/08/10 01:44:54;;;;;;;3.4;6.3;;;;;;;11.9;100;99450;;;;
2022/08/10 01:55:54;;;;;;;3.4;6.3;;;;;;;11.8;100;99450;;;;
2022/08/10 02:06:54;;;;;;;3.3;8;;;;;;;11.7;100;99450;;;;
2022/08/10 02:16:54;;;;;;;3.3;8;;;;;;;11.6;100;99440;;;;
2022/08/10 02:27:54;;;;;;;3.3;8;;;;;;;11.5;100;99450;;;;
2022/08/10 02:38:54;;;;;;;3.8;6.3;;;;;;;11.4;100;99460;;;;
2022/08/10 02:48:54;;;;;;;3.8;6.3;;;;;;;11.2;100;99460;;;;
2022/08/10 02:58:55;;;;;;;3.8;6.3;;;;;;;11.2;100;99480;;;;
2022/08/10 03:09:54;;;;;;;4;6.5;;;;;;;11;100;99480;;;;
2022/08/10 03:20:54;;;;;;;4;6.5;;;;;;;10.9;100;99480;;;;
2022/08/10 03:30:54;;;;;;;4.8;13;;;;;;;11;100;99490;;;;
2022/08/10 03:40:54;;;;;;;4.8;13;;;;;;;11.1;100;99500;;;;
2022/08/10 03:51:54;;;;;;;4.8;13;;;;;;;11.2;100;99500;;;;
2022/08/10 04:01:54;;;;;;;4.4;11.5;;;;;;;11.3;100;99510;;;;
2022/08/10 04:11:54;;;;;;;4.4;11.5;;;;;;;11.5;100;99510;;;;
2022/08/10 04:22:54;;;;;;;4.4;11.5;;;;;;;11.9;100;99520;;;;
2022/08/10 04:32:54;;;;;;;4.5;8.9;;;;;;;12.2;100;99530;;;;
2022/08/10 04:42:54;;;;;;;4.5;8.9;;;;;;;12.5;100;99540;;;;
2022/08/10 04:53:54;;;;;;;4.5;8.9;;;;;;;13;100;99550;;;;
2022/08/10 05:04:54;;;;;;;5.5;11;;;;;;;13.6;100;99550;;;;
2022/08/10 05:14:54;;;;;;;5.5;11;;;;;;;14;100;99550;;;;
2022/08/10 05:25:54;;;;;;;5.5;11;;;;;;;14.5;100;99550;;;;
2022/08/10 05:36:54;;;;;;;6.7;9.2;;;;;;;15;100;99550;;;;
2022/08/10 05:46:54;;;;;;;6.7;9.2;;;;;;;15.3;100;99550;;;;
2022/08/10 05:57:54;;;;;;;6.7;9.2;;;;;;;15.8;100;99560;;;;
2022/08/10 06:08:54;;;;;;;6;11.6;;;;;;;16.3;100;99570;;;;
2022/08/10 06:19:54;;;;;;;6;11.6;;;;;;;16.6;100;99560;;;;
2022/08/10 06:30:54;;;;;;;6.3;9.7;;;;;;;17;100;99570;;;;
2022/08/10 06:41:54;;;;;;;6.3;9.7;;;;;;;17.6;100;99570;;;;
2022/08/10 06:51:54;;;;;;;6.3;9.7;;;;;;;18.2;100;99570;;;;
2022/08/10 07:02:54;;;;;;;4.9;9;;;;;;;18.7;100;99560;;;;
2022/08/10 07:12:54;;;;;;;4.9;9;;;;;;;18.6;100;99570;;;;
2022/08/10 07:23:54;;;;;;;4.9;9;;;;;;;19.3;100;99560;;;;
2022/08/10 07:33:54;;;;;;;4.8;10.5;;;;;;;19.7;100;99560;;;;
2022/08/10 07:44:54;;;;;;;4.8;10.5;;;;;;;20;100;99570;;;;
2022/08/10 07:55:54;;;;;;;4.8;10.5;;;;;;;20;100;99560;;;;
2022/08/10 08:05:54;;;;;;;4.8;12.7;;;;;;;20.3;100;99570;;;;
2022/08/10 08:15:54;;;;;;;4.8;12.7;;;;;;;21.2;100;99560;;;;
2022/08/10 08:25:54;;;;;;;4.8;12.7;;;;;;;21.3;100;99560;;;;
2022/08/10 08:35:54;;;;;;;4.1;11.2;;;;;;;21.7;100;99550;;;;
2022/08/10 08:45:54;;;;;;;4.1;11.2;;;;;;;22.2;100;99550;;;;
2022/08/10 08:56:54;;;;;;;4.1;11.2;;;;;;;22.6;100;99530;;;;
2022/08/10 09:06:54;;;;;;;3.3;9.6;;;;;;;22.8;99.1;99530;;;;
2022/08/10 09:16:56;;;;;;;3.3;9.6;;;;;;;23;100;99530;;;;
2022/08/10 09:27:54;;;;;;;3.3;9.6;;;;;;;23;95.3;99520;;;;
2022/08/10 09:37:54;;;;;;;2.2;4.4;;;;;;;22.8;91.8;99530;;;;
2022/08/10 09:48:54;;;;;;;2.2;4.4;;;;;;;22.7;91.8;99510;;;;
2022/08/10 09:58:54;;;;;;;2.2;4.4;;;;;;;23;91.8;99500;;;;
2022/08/10 10:08:55;;;;;;;2.1;4.8;;;;;;;23.6;85.6;99500;;;;
2022/08/10 10:19:54;;;;;;;2.1;4.8;;;;;;;23.8;84;99490;;;;
2022/08/10 10:30:54;;;;;;;1.8;3.7;;;;;;;24;84.4;99490;;;;
2022/08/10 10:40:54;;;;;;;1.8;3.7;;;;;;;24.4;86.2;99480;;;;
2022/08/10 10:51:54;;;;;;;1.8;3.7;;;;;;;24.5;86.8;99470;;;;
2022/08/10 11:02:54;;;;;;;2;5.2;;;;;;;24.5;85.3;99470;;;;
2022/08/10 11:13:54;;;;;;;2;5.2;;;;;;;25.1;77.6;99470;;;;
2022/08/10 11:23:54;;;;;;;2;5.2;;;;;;;25.2;81.9;99460;;;;
2022/08/10 11:34:54;;;;;;;1.8;4.6;;;;;;;25.3;78.7;99460;;;;
2022/08/10 11:45:54;;;;;;;1.8;4.6;;;;;;;24.7;78.3;99450;;;;
2022/08/10 11:55:54;;;;;;;1.8;4.6;;;;;;;25;76.2;99440;;;;
2022/08/10 12:06:54;;;;;;;1.9;5.4;;;;;;;25.8;69.7;99430;;;;
2022/08/10 12:17:54;;;;;;;1.9;5.4;;;;;;;25.8;71.8;99420;;;;
2022/08/10 12:27:54;;;;;;;1.9;5.4;;;;;;;26.3;68.4;99420;;;;
2022/08/10 12:38:54;;;;;;;1.8;4.3;;;;;;;25.7;72.7;99420;;;;
2022/08/10 12:48:54;;;;;;;1.8;4.3;;;;;;;24.9;71.3;99400;;;;
2022/08/10 12:58:54;;;;;;;1.8;4.3;;;;;;;24.6;76;99390;;;;
2022/08/10 13:09:54;;;;;;;1.9;7.1;;;;;;;25.5;72.7;99380;;;;
2022/08/10 13:19:54;;;;;;;1.9;7.1;;;;;;;25.8;70.7;99370;;;;
2022/08/10 13:29:54;;;;;;;1.4;4;;;;;;;26;68.4;99370;;;;
2022/08/10 13:40:54;;;;;;;1.4;4;;;;;;;25.4;71;99350;;;;
2022/08/10 13:50:54;;;;;;;1.4;4;;;;;;;26.1;65.8;99350;;;;
2022/08/10 14:01:54;;;;;;;1.5;4.2;;;;;;;26.2;68.3;99340;;;;
2022/08/10 14:12:54;;;;;;;1.5;4.2;;;;;;;25.7;65.1;99330;;;;
2022/08/10 14:23:54;;;;;;;1.5;4.2;;;;;;;24.7;72.7;99330;;;;
2022/08/10 14:34:54;;;;;;;1.6;5;;;;;;;25.6;70.6;99320;;;;
2022/08/10 14:44:54;;;;;;;1.6;5;;;;;;;27.1;70.1;99310;;;;
2022/08/10 14:54:55;;;;;;;1.6;5;;;;;;;27.5;63.1;99320;;;;
2022/08/10 15:04:54;;;;;;;1.6;5;;;;;;;26.1;67.2;99300;;;;
2022/08/10 15:14:55;;;;;;;1.6;5;;;;;;;27.3;68.4;99300;;;;
2022/08/10 15:25:54;;;;;;;1.6;5;;;;;;;26.3;63.4;99290;;;;
2022/08/10 15:45:55;;;;;;;1.4;3.9;;;;;;;25.5;66.5;99290;;;;
2022/08/10 15:56:55;;;;;;;1.4;3.9;;;;;;;26.8;62.6;99290;;;;
2022/08/10 16:06:54;;;;;;;1.5;4.3;;;;;;;30.8;52.2;99300;;;;
2022/08/10 16:17:54;;;;;;;1.5;4.3;;;;;;;27.6;53.3;99290;;;;
2022/08/10 16:27:54;;;;;;;1.5;4.3;;;;;;;26.3;56.5;99290;;;;
2022/08/10 16:38:54;;;;;;;2.4;4.9;;;;;;;25;58.7;99300;;;;
2022/08/10 16:48:55;;;;;;;2.4;4.9;;;;;;;24.5;60.7;99290;;;;
2022/08/10 16:59:54;;;;;;;2.4;4.9;;;;;;;24.3;62.5;99290;;;;
2022/08/10 17:09:54;;;;;;;1.6;3;;;;;;;23.9;67.1;99300;;;;
2022/08/10 17:19:54;;;;;;;1.6;3;;;;;;;23.7;68;99300;;;;
2022/08/10 17:29:54;;;;;;;1.6;3;;;;;;;24.4;65.4;99300;;;;
2022/08/10 17:39:54;;;;;;;1.7;6.8;;;;;;;23.2;69.9;99290;;;;
2022/08/10 17:50:54;;;;;;;1.7;6.8;;;;;;;22.2;73.7;99290;;;;
2022/08/10 18:00:54;;;;;;;2.7;5.7;;;;;;;21.6;76.1;99300;;;;
2022/08/10 18:10:55;;;;;;;2.7;5.7;;;;;;;21;79.2;99300;;;;
2022/08/10 18:21:55;;;;;;;2.7;5.7;;;;;;;20.4;80.2;99310;;;;
2022/08/10 18:32:55;;;;;;;8.9;14;;;;;;;19.6;85.3;99310;;;;
2022/08/10 18:43:55;;;;;;;8.9;14;;;;;;;18.9;89.3;99320;;;;
2022/08/10 18:54:55;;;;;;;8.9;14;;;;;;;18.3;90.7;99330;;;;
2022/08/10 19:05:54;;;;;;;9.2;14.4;;;;;;;17.9;94.7;99330;;;;
2022/08/10 19:15:55;;;;;;;9.2;14.4;;;;;;;17.5;99.4;99330;;;;
2022/08/10 19:26:55;;;;;;;9.2;14.4;;;;;;;17.2;100;99350;;;;
2022/08/10 19:36:54;;;;;;;17.2;24.7;;;;;;;17;100;99340;;;;
2022/08/10 19:47:55;;;;;;;17.2;24.7;;;;;;;16.9;100;99350;;;;
2022/08/10 19:58:55;;;;;;;17.2;24.7;;;;;;;16.8;100;99340;;;;
2022/08/10 20:09:55;;;;;;;20.8;31.5;;;;;;;16.5;100;99340;;;;
2022/08/10 20:20:54;;;;;;;20.8;31.5;;;;;;;16.4;100;99340;;;;
2022/08/10 20:30:54;;;;;;;4.4;8.6;;;;;;;16.3;100;99340;;;;
2022/08/10 20:41:56;;;;;;;4.4;8.6;;;;;;;16.3;100;99330;;;;
2022/08/10 20:52:55;;;;;;;4.4;8.6;;;;;;;16.4;100;99340;;;;
2022/08/10 21:02:55;;;;;;;3;5.6;;;;;;;16.5;100;99340;;;;
2022/08/10 21:13:55;;;;;;;3;5.6;;;;;;;16.6;100;99340;;;;
2022/08/10 21:24:55;;;;;;;3;5.6;;;;;;;16.5;100;99330;;;;
2022/08/10 23:07:55;;;;;;;3;6.5;;;;;;;15.5;100;99300;;;;
2022/08/10 23:29:55;;;;;;;3.2;6.8;;;;;;;14.8;100;99300;;;;
2022/08/10 23:40:55;;;;;;;3.2;6.8;;;;;;;14.5;100;99290;;;;
2022/08/10 23:50:55;;;;;;;3.2;6.8;;;;;;;14.3;100;99290;;;;
